Time;durP1;ratioP1;P1;durP2;ratioP2;P2;SDS_P1;SDS_P2;PMS_P1;PMS_P2;Temp;Humidity;BMP_temperature;BMP_pressure;BME280_temperature;BME280_humidity;BME280_pressure;Samples;Min_cycle;Max_cycle;Signal;HPM_P1;HPM_P2
2022/12/13 00:00:02;;;;;;;;;;;-1.50;99.90;;;;;;5093931;28;20032;-85
2022/12/13 00:02:28;;;;;;;;;;;-1.50;99.90;;;;;;5096205;28;19923;-85
2022/12/13 00:04:53;;;;;;;;;;;-1.50;99.90;;;;;;5094730;28;20399;-85
2022/12/13 00:07:19;;;;;;;;;;;-1.50;99.90;;;;;;5098120;28;19967;-85
2022/12/13 00:09:44;;;;;;;;;;;-1.40;99.90;;;;;;5095232;28;19915;-85
2022/12/13 00:12:10;;;;;;;;;;;-1.40;99.90;;;;;;5092954;28;19928;-85
2022/12/13 00:14:35;;;;;;;;;;;-1.40;99.90;;;;;;5092435;28;19908;-86
2022/12/13 00:17:01;;;;;;;;;;;-1.40;99.90;;;;;;5092471;28;19924;-85
2022/12/13 00:19:26;;;;;;;;;;;-1.50;99.90;;;;;;5092192;28;19908;-85
2022/12/13 00:21:52;;;;;;;;;;;-1.50;99.90;;;;;;5093485;28;19965;-82
2022/12/13 00:24:17;;;;;;;;;;;-1.40;99.90;;;;;;5093285;28;19908;-82
2022/12/13 00:26:43;;;;;;;;;;;-1.50;99.90;;;;;;5093108;28;19915;-82
2022/12/13 00:29:10;;;;;;;;;;;-1.50;99.90;;;;;;5093142;28;19908;-82
2022/12/13 00:31:35;;;;;;;;;;;-1.50;99.90;;;;;;5093132;28;19916;-83
2022/12/13 00:34:01;;;;;;;;;;;-1.50;99.90;;;;;;5095231;28;20453;-82
2022/12/13 00:36:26;;;;;;;;;;;-1.50;99.90;;;;;;5093404;28;20014;-82
2022/12/13 00:39:01;;;;;;;;;;;-1.50;99.90;;;;;;5093173;28;19992;-83
2022/12/13 00:41:29;;;;;;;;;;;-1.60;99.90;;;;;;5092938;28;19935;-82
2022/12/13 00:43:54;;;;;;;;;;;-1.60;99.90;;;;;;5093370;28;19939;-83
2022/12/13 00:46:22;;;;;;;;;;;-1.60;99.90;;;;;;5093518;28;19908;-82
2022/12/13 00:48:58;;;;;;;;;;;-1.60;99.90;;;;;;5093234;28;19908;-83
2022/12/13 00:51:25;;;;;;;;;;;-1.70;99.90;;;;;;5093125;28;19977;-83
2022/12/13 00:53:50;;;;;;;;;;;-1.70;99.90;;;;;;5093038;28;19908;-82
2022/12/13 00:56:20;;;;;;;;;;;-1.70;99.90;;;;;;5093295;28;19962;-82
2022/12/13 00:58:45;;;;;;;;;;;-1.70;99.90;;;;;;5093602;28;20007;-83
2022/12/13 01:01:12;;;;;;;;;;;-1.80;99.90;;;;;;5093065;28;19955;-82
2022/12/13 01:03:37;;;;;;;;;;;-1.80;99.90;;;;;;5093540;28;20330;-83
2022/12/13 01:06:11;;;;;;;;;;;-1.80;99.90;;;;;;5093513;28;19947;-83
2022/12/13 01:08:36;;;;;;;;;;;-1.80;99.90;;;;;;5093302;28;19915;-82
2022/12/13 01:11:02;;;;;;;;;;;-1.90;99.90;;;;;;5093472;28;19979;-82
2022/12/13 01:13:28;;;;;;;;;;;-1.90;99.90;;;;;;5093207;28;19908;-83
2022/12/13 01:15:53;;;;;;;;;;;-1.90;99.90;;;;;;5092529;28;19931;-81
2022/12/13 01:18:19;;;;;;;;;;;-1.90;99.90;;;;;;5093961;28;20011;-83
2022/12/13 01:21:01;;;;;;;;;;;-1.90;99.90;;;;;;5096887;28;19912;-83
2022/12/13 01:23:27;;;;;;;;;;;-1.90;99.90;;;;;;5095520;28;19908;-83
2022/12/13 01:25:52;;;;;;;;;;;-1.90;99.90;;;;;;5096365;28;19908;-83
2022/12/13 01:28:18;;;;;;;;;;;-1.90;99.90;;;;;;5098115;28;19958;-83
2022/12/13 01:30:43;;;;;;;;;;;-1.90;99.90;;;;;;5097748;28;19945;-82
2022/12/13 01:33:09;;;;;;;;;;;-1.90;99.90;;;;;;5104071;28;20497;-82
2022/12/13 01:35:34;;;;;;;;;;;-2.00;99.90;;;;;;5106744;28;19958;-82
2022/12/13 01:38:00;;;;;;;;;;;-2.00;99.90;;;;;;5109729;28;19907;-83
2022/12/13 01:40:26;;;;;;;;;;;-2.00;99.90;;;;;;5109147;28;19912;-83
2022/12/13 01:42:51;;;;;;;;;;;-2.00;99.90;;;;;;5105449;28;19950;-83
2022/12/13 01:45:21;;;;;;;;;;;-2.00;99.90;;;;;;5104341;28;19908;-83
2022/12/13 01:47:50;;;;;;;;;;;-2.00;99.90;;;;;;5104880;28;20450;-82
2022/12/13 01:50:18;;;;;;;;;;;-2.10;99.90;;;;;;5104271;28;19989;-82
2022/12/13 01:52:43;;;;;;;;;;;-2.10;99.90;;;;;;5103747;28;19912;-82
2022/12/13 01:55:11;;;;;;;;;;;-2.10;99.90;;;;;;5105031;28;19912;-84
2022/12/13 01:57:37;;;;;;;;;;;-2.10;99.90;;;;;;5104528;28;19973;-82
2022/12/13 02:00:04;;;;;;;;;;;-2.10;99.90;;;;;;5106279;28;19931;-83
2022/12/13 02:02:30;;;;;;;;;;;-2.10;99.90;;;;;;5103191;28;19908;-82
2022/12/13 02:05:02;;;;;;;;;;;-2.20;99.90;;;;;;5104071;28;19951;-83
2022/12/13 02:07:30;;;;;;;;;;;-2.20;99.90;;;;;;5104250;28;19934;-82
2022/12/13 02:09:57;;;;;;;;;;;-2.20;99.90;;;;;;5103581;28;20285;-84
2022/12/13 02:12:27;;;;;;;;;;;-2.20;99.90;;;;;;5103329;28;19913;-82
2022/12/13 02:14:53;;;;;;;;;;;-2.30;99.90;;;;;;5103675;28;20006;-83
2022/12/13 02:17:29;;;;;;;;;;;-2.30;99.90;;;;;;5103891;28;19924;-83
2022/12/13 02:20:13;;;;;;;;;;;-2.40;99.90;;;;;;5103267;28;19914;-84
2022/12/13 02:22:47;;;;;;;;;;;-2.40;99.90;;;;;;5104263;28;19908;-82
2022/12/13 02:25:39;;;;;;;;;;;-2.40;99.90;;;;;;5103878;28;19908;-83
2022/12/13 02:28:11;;;;;;;;;;;-2.40;99.90;;;;;;5087250;28;19908;-83
2022/12/13 02:30:38;;;;;;;;;;;-2.40;99.90;;;;;;5103178;28;19920;-82
2022/12/13 02:33:03;;;;;;;;;;;-2.40;99.90;;;;;;5102824;28;19908;-83
2022/12/13 02:35:39;;;;;;;;;;;-2.40;99.90;;;;;;5102498;28;19930;-83
2022/12/13 02:38:09;;;;;;;;;;;-2.40;99.90;;;;;;5103143;28;19912;-84
2022/12/13 02:40:41;;;;;;;;;;;-2.40;99.90;;;;;;5102670;28;19908;-82
2022/12/13 02:43:21;;;;;;;;;;;-2.40;99.90;;;;;;5103412;28;19908;-82
2022/12/13 02:45:52;;;;;;;;;;;-2.40;99.90;;;;;;5103329;28;19934;-83
2022/12/13 02:48:24;;;;;;;;;;;-2.40;99.90;;;;;;5105208;28;19908;-83
2022/12/13 02:50:50;;;;;;;;;;;-2.40;99.90;;;;;;5102500;28;19959;-83
2022/12/13 02:53:16;;;;;;;;;;;-2.40;99.90;;;;;;5102339;28;19916;-82
2022/12/13 02:55:41;;;;;;;;;;;-2.40;99.90;;;;;;5101881;28;20002;-83
2022/12/13 02:58:10;;;;;;;;;;;-2.50;99.90;;;;;;5102479;28;19988;-83
2022/12/13 03:00:38;;;;;;;;;;;-2.50;99.90;;;;;;5103727;28;19916;-83
2022/12/13 03:03:23;;;;;;;;;;;-2.50;99.90;;;;;;5102157;28;19908;-83
2022/12/13 03:09:07;;;;;;;;;;;-2.50;99.90;;;;;;5103775;28;19915;-82
2022/12/13 03:14:40;;;;;;;;;;;-2.50;99.90;;;;;;5102870;28;19931;-83
2022/12/13 03:17:06;;;;;;;;;;;-2.50;99.90;;;;;;5102591;28;20365;-82
2022/12/13 03:19:32;;;;;;;;;;;-2.40;99.90;;;;;;5102735;28;19927;-83
2022/12/13 03:22:03;;;;;;;;;;;-2.40;99.90;;;;;;5094134;28;21748;-83
2022/12/13 03:24:29;;;;;;;;;;;-2.40;99.90;;;;;;5094691;28;19908;-83
2022/12/13 03:26:54;;;;;;;;;;;-2.40;99.90;;;;;;5095495;28;20353;-83
2022/12/13 03:29:20;;;;;;;;;;;-2.40;99.90;;;;;;5095250;28;19908;-83
2022/12/13 03:31:45;;;;;;;;;;;-2.40;99.90;;;;;;5095824;28;20008;-83
2022/12/13 03:34:11;;;;;;;;;;;-2.40;99.90;;;;;;5094952;28;19912;-82
2022/12/13 03:36:36;;;;;;;;;;;-2.40;99.90;;;;;;5095040;28;19912;-83
2022/12/13 03:39:02;;;;;;;;;;;-2.30;99.90;;;;;;5094322;28;19908;-83
2022/12/13 03:41:30;;;;;;;;;;;-2.30;99.90;;;;;;5093509;28;19908;-82
2022/12/13 03:44:01;;;;;;;;;;;-2.30;99.90;;;;;;5094214;28;19908;-82
2022/12/13 03:46:27;;;;;;;;;;;-2.30;99.90;;;;;;5094456;28;19908;-83
2022/12/13 03:48:52;;;;;;;;;;;-2.30;99.90;;;;;;5095279;28;19916;-83
2022/12/13 03:51:18;;;;;;;;;;;-2.30;99.90;;;;;;5094614;28;19999;-82
2022/12/13 03:53:43;;;;;;;;;;;-2.30;99.90;;;;;;5093551;28;19954;-83
2022/12/13 03:56:09;;;;;;;;;;;-2.20;99.90;;;;;;5094294;28;19908;-83
2022/12/13 03:58:35;;;;;;;;;;;-2.30;99.90;;;;;;5094080;28;19962;-82
2022/12/13 04:01:00;;;;;;;;;;;-2.30;99.90;;;;;;5094135;28;20007;-82
2022/12/13 04:03:26;;;;;;;;;;;-2.30;99.90;;;;;;5094731;28;19908;-82
2022/12/13 04:05:51;;;;;;;;;;;-2.30;99.90;;;;;;5096859;28;19918;-83
2022/12/13 04:08:17;;;;;;;;;;;-2.30;99.90;;;;;;5095708;28;19908;-83
2022/12/13 04:10:42;;;;;;;;;;;-2.30;99.90;;;;;;5094268;28;19908;-82
2022/12/13 04:15:53;;;;;;;;;;;-2.30;99.90;;;;;;5095355;28;19915;-82
2022/12/13 04:18:18;;;;;;;;;;;-2.30;99.90;;;;;;5095109;28;20280;-81
2022/12/13 04:20:44;;;;;;;;;;;-2.40;99.90;;;;;;5094116;28;19915;-83
2022/12/13 04:23:10;;;;;;;;;;;-2.40;99.90;;;;;;5093895;28;20010;-83
2022/12/13 04:25:36;;;;;;;;;;;-2.40;99.90;;;;;;5093849;28;19953;-83
2022/12/13 04:28:01;;;;;;;;;;;-2.40;99.90;;;;;;5093942;28;19919;-83
2022/12/13 04:30:27;;;;;;;;;;;-2.40;99.90;;;;;;5095103;28;19922;-82
2022/12/13 04:32:52;;;;;;;;;;;-2.40;99.90;;;;;;5093957;28;19977;-83
2022/12/13 04:35:18;;;;;;;;;;;-2.40;99.90;;;;;;5093607;28;19970;-83
2022/12/13 04:37:43;;;;;;;;;;;-2.40;99.90;;;;;;5093541;28;19959;-82
2022/12/13 04:40:09;;;;;;;;;;;-2.50;99.90;;;;;;5093367;28;19910;-82
2022/12/13 04:42:34;;;;;;;;;;;-2.50;99.90;;;;;;5093374;28;19908;-83
2022/12/13 04:45:00;;;;;;;;;;;-2.50;99.90;;;;;;5094731;28;20034;-83
2022/12/13 04:47:25;;;;;;;;;;;-2.50;99.90;;;;;;5094777;28;19908;-82
2022/12/13 04:49:51;;;;;;;;;;;-2.50;99.90;;;;;;5094408;28;19917;-82
2022/12/13 04:52:16;;;;;;;;;;;-2.50;99.90;;;;;;5094610;28;19908;-83
2022/12/13 04:54:42;;;;;;;;;;;-2.50;99.90;;;;;;5097803;28;19908;-82
2022/12/13 04:57:09;;;;;;;;;;;-2.50;99.90;;;;;;5097447;28;19913;-82
2022/12/13 04:59:35;;;;;;;;;;;-2.50;99.90;;;;;;5097606;28;19908;-82
2022/12/13 05:02:00;;;;;;;;;;;-2.50;99.90;;;;;;5098713;28;20007;-82
2022/12/13 05:04:26;;;;;;;;;;;-2.60;99.90;;;;;;5097470;28;19954;-82
2022/12/13 05:06:51;;;;;;;;;;;-2.60;99.90;;;;;;5097643;28;19918;-82
2022/12/13 05:09:17;;;;;;;;;;;-2.60;99.90;;;;;;5098664;28;19995;-83
2022/12/13 05:11:42;;;;;;;;;;;-2.60;99.90;;;;;;5099829;28;19908;-85
2022/12/13 05:14:08;;;;;;;;;;;-2.60;99.90;;;;;;5096935;28;20368;-84
2022/12/13 05:16:33;;;;;;;;;;;-2.60;99.90;;;;;;5097399;28;19912;-86
2022/12/13 05:18:59;;;;;;;;;;;-2.70;99.90;;;;;;5097195;28;19931;-85
2022/12/13 05:21:24;;;;;;;;;;;-2.60;99.90;;;;;;5096570;28;20006;-85
2022/12/13 05:23:49;;;;;;;;;;;-2.60;99.90;;;;;;5096952;28;19916;-85
2022/12/13 05:26:15;;;;;;;;;;;-2.70;99.90;;;;;;5096886;28;20380;-85
2022/12/13 05:28:40;;;;;;;;;;;-2.70;99.90;;;;;;5096880;28;19912;-85
2022/12/13 05:31:07;;;;;;;;;;;-2.70;99.90;;;;;;5108048;22;20346;-86
2022/12/13 05:33:33;;;;;;;;;;;-2.80;99.90;;;;;;5074514;28;20377;-86
2022/12/13 05:35:58;;;;;;;;;;;-2.80;99.90;;;;;;5074166;28;19915;-86
2022/12/13 05:38:23;;;;;;;;;;;-2.80;99.90;;;;;;5074005;28;19916;-83
2022/12/13 05:40:49;;;;;;;;;;;-2.80;99.90;;;;;;5074122;28;19909;-83
2022/12/13 05:43:15;;;;;;;;;;;-2.70;99.90;;;;;;5074059;28;20319;-83
2022/12/13 05:45:40;;;;;;;;;;;-2.80;99.90;;;;;;5074138;28;19915;-83
2022/12/13 05:48:06;;;;;;;;;;;-2.70;99.90;;;;;;5074062;28;20007;-84
2022/12/13 05:50:31;;;;;;;;;;;-2.80;99.90;;;;;;5073965;28;19931;-83
2022/12/13 05:52:57;;;;;;;;;;;-2.80;99.90;;;;;;5075068;28;19963;-84
2022/12/13 05:55:22;;;;;;;;;;;-2.80;99.90;;;;;;5074009;28;20067;-83
2022/12/13 05:57:48;;;;;;;;;;;-2.80;99.90;;;;;;5073881;28;19908;-83
2022/12/13 06:00:13;;;;;;;;;;;-2.80;99.90;;;;;;5073925;28;19908;-84
2022/12/13 06:02:40;;;;;;;;;;;-2.80;99.90;;;;;;5074891;28;20373;-84
2022/12/13 06:05:06;;;;;;;;;;;-2.90;99.90;;;;;;5074349;28;19909;-84
2022/12/13 06:07:31;;;;;;;;;;;-2.90;99.90;;;;;;5073690;28;19919;-83
2022/12/13 06:09:57;;;;;;;;;;;-2.90;99.90;;;;;;5073682;28;19916;-83
2022/12/13 06:12:22;;;;;;;;;;;-2.90;99.90;;;;;;5074697;28;19908;-83
2022/12/13 06:14:47;;;;;;;;;;;-2.80;99.90;;;;;;5073973;28;20432;-83
2022/12/13 06:17:23;;;;;;;;;;;-2.80;99.90;;;;;;5074507;28;19912;-83
2022/12/13 06:19:49;;;;;;;;;;;-2.80;99.90;;;;;;5074516;28;19999;-85
2022/12/13 06:22:15;;;;;;;;;;;-2.80;99.90;;;;;;5075592;28;19908;-83
2022/12/13 06:24:40;;;;;;;;;;;-2.80;99.90;;;;;;5074464;28;20328;-84
2022/12/13 06:27:06;;;;;;;;;;;-2.80;99.90;;;;;;5075672;28;19913;-83
2022/12/13 06:29:31;;;;;;;;;;;-2.70;99.90;;;;;;5074124;28;20380;-83
2022/12/13 06:31:58;;;;;;;;;;;-2.70;99.90;;;;;;5092009;28;19961;-83
2022/12/13 06:34:23;;;;;;;;;;;-2.70;99.90;;;;;;5095735;28;19947;-83
2022/12/13 06:36:49;;;;;;;;;;;-2.70;99.90;;;;;;5094068;28;19931;-82
2022/12/13 06:39:15;;;;;;;;;;;-2.70;99.90;;;;;;5094002;28;20389;-83
2022/12/13 06:41:40;;;;;;;;;;;-2.70;99.90;;;;;;5094712;28;19944;-84
2022/12/13 06:44:06;;;;;;;;;;;-2.80;99.90;;;;;;5093981;28;19915;-84
2022/12/13 06:46:32;;;;;;;;;;;-2.70;99.90;;;;;;5093757;28;19908;-83
2022/12/13 06:48:57;;;;;;;;;;;-2.80;99.90;;;;;;5093589;28;19954;-83
2022/12/13 06:51:23;;;;;;;;;;;-2.80;99.90;;;;;;5094712;28;19915;-83
2022/12/13 06:53:48;;;;;;;;;;;-2.70;99.90;;;;;;5093328;28;19915;-84
2022/12/13 06:56:14;;;;;;;;;;;-2.70;99.90;;;;;;5094568;28;19959;-83
2022/12/13 06:58:40;;;;;;;;;;;-2.70;99.90;;;;;;5094561;28;19915;-83
2022/12/13 07:01:07;;;;;;;;;;;-2.70;99.90;;;;;;5093287;28;19912;-83
2022/12/13 07:03:34;;;;;;;;;;;-2.70;99.90;;;;;;5093187;28;19909;-84
2022/12/13 07:06:02;;;;;;;;;;;-2.70;99.90;;;;;;5094845;28;20353;-83
2022/12/13 07:08:27;;;;;;;;;;;-2.70;99.90;;;;;;5093571;28;19912;-83
2022/12/13 07:10:54;;;;;;;;;;;-2.70;99.90;;;;;;5093058;28;19916;-84
2022/12/13 07:13:19;;;;;;;;;;;-2.70;99.90;;;;;;5093060;28;19994;-84
2022/12/13 07:15:45;;;;;;;;;;;-2.80;99.90;;;;;;5093192;28;19947;-83
2022/12/13 07:18:11;;;;;;;;;;;-2.70;99.90;;;;;;5093296;28;19916;-83
2022/12/13 07:20:40;;;;;;;;;;;-2.80;99.90;;;;;;5094086;28;19908;-83
2022/12/13 07:23:06;;;;;;;;;;;-2.80;99.90;;;;;;5092767;28;20305;-84
2022/12/13 07:25:31;;;;;;;;;;;-2.80;99.90;;;;;;5092878;28;19915;-83
2022/12/13 07:28:01;;;;;;;;;;;-2.80;99.90;;;;;;5093757;28;19916;-83
2022/12/13 07:30:26;;;;;;;;;;;-2.80;99.90;;;;;;5095400;28;19919;-84
2022/12/13 07:32:52;;;;;;;;;;;-2.70;99.90;;;;;;5094439;28;19908;-83
2022/12/13 07:35:17;;;;;;;;;;;-2.70;99.90;;;;;;5094839;28;19930;-83
2022/12/13 07:37:43;;;;;;;;;;;-2.70;99.90;;;;;;5093262;28;19908;-83
2022/12/13 07:40:09;;;;;;;;;;;-2.70;99.90;;;;;;5093800;28;19908;-83
2022/12/13 07:42:34;;;;;;;;;;;-2.70;99.90;;;;;;5093761;28;20357;-83
2022/12/13 07:45:00;;;;;;;;;;;-2.70;99.90;;;;;;5093382;28;19916;-83
2022/12/13 07:47:29;;;;;;;;;;;-2.70;99.90;;;;;;5093022;28;19916;-83
2022/12/13 07:49:55;;;;;;;;;;;-2.70;99.90;;;;;;5092080;28;19908;-83
2022/12/13 07:52:20;;;;;;;;;;;-2.70;99.90;;;;;;5091733;28;19915;-84
2022/12/13 07:54:45;;;;;;;;;;;-2.70;99.90;;;;;;5092657;28;19908;-83
2022/12/13 07:57:12;;;;;;;;;;;-2.70;99.90;;;;;;5093795;28;20357;-83
2022/12/13 07:59:37;;;;;;;;;;;-2.70;99.90;;;;;;5092634;28;19912;-83
2022/12/13 08:02:04;;;;;;;;;;;-2.70;99.90;;;;;;5092597;28;20281;-83
2022/12/13 08:04:29;;;;;;;;;;;-2.60;99.90;;;;;;5092230;28;19908;-83
2022/12/13 08:06:55;;;;;;;;;;;-2.60;99.90;;;;;;5088983;28;19916;-83
2022/12/13 08:09:21;;;;;;;;;;;-2.60;99.90;;;;;;5078796;28;19948;-83
2022/12/13 08:11:46;;;;;;;;;;;-2.50;99.90;;;;;;5072860;28;20373;-83
2022/12/13 08:14:12;;;;;;;;;;;-2.60;99.90;;;;;;5073794;28;19912;-83
2022/12/13 08:16:37;;;;;;;;;;;-2.50;99.90;;;;;;5072010;28;20289;-83
2022/12/13 08:19:02;;;;;;;;;;;-2.50;99.90;;;;;;5076307;28;19912;-82
2022/12/13 08:21:28;;;;;;;;;;;-2.40;99.90;;;;;;5091540;28;19916;-83
2022/12/13 08:23:53;;;;;;;;;;;-2.40;99.90;;;;;;5092195;28;20293;-82
2022/12/13 08:26:19;;;;;;;;;;;-2.30;99.90;;;;;;5093406;28;19916;-83
2022/12/13 08:28:44;;;;;;;;;;;-2.20;99.90;;;;;;5092147;28;19908;-83
2022/12/13 08:31:11;;;;;;;;;;;-2.10;99.90;;;;;;5089486;28;19969;-83
2022/12/13 08:33:36;;;;;;;;;;;-2.10;99.90;;;;;;5071998;28;19916;-83
2022/12/13 08:36:15;;;;;;;;;;;-2.10;99.90;;;;;;5071962;28;20380;-85
2022/12/13 08:38:41;;;;;;;;;;;-2.00;99.90;;;;;;5072861;28;20282;-84
2022/12/13 08:41:07;;;;;;;;;;;-1.90;99.90;;;;;;5070547;28;19908;-84
2022/12/13 08:43:33;;;;;;;;;;;-1.90;99.90;;;;;;5072102;28;19908;-84
2022/12/13 08:45:58;;;;;;;;;;;-1.80;99.90;;;;;;5071427;28;19931;-84
2022/12/13 08:48:24;;;;;;;;;;;-1.80;99.90;;;;;;5071192;28;19912;-83
2022/12/13 08:50:49;;;;;;;;;;;-1.70;99.90;;;;;;5070521;28;19916;-83
2022/12/13 08:53:15;;;;;;;;;;;-1.70;99.90;;;;;;5071324;28;20613;-84
2022/12/13 08:55:40;;;;;;;;;;;-1.60;99.90;;;;;;5071173;28;20012;-84
2022/12/13 08:58:07;;;;;;;;;;;-1.60;99.90;;;;;;5071091;28;19908;-83
2022/12/13 09:00:33;;;;;;;;;;;-1.50;99.90;;;;;;5072148;28;20121;-84
2022/12/13 09:02:58;;;;;;;;;;;-1.40;99.90;;;;;;5071808;28;20037;-84
2022/12/13 09:05:24;;;;;;;;;;;-1.40;99.90;;;;;;5070848;28;19916;-83
2022/12/13 09:07:53;;;;;;;;;;;-1.30;99.90;;;;;;5070762;28;19912;-84
2022/12/13 09:10:19;;;;;;;;;;;-1.20;99.90;;;;;;5070628;28;19915;-83
2022/12/13 09:12:45;;;;;;;;;;;-1.10;99.90;;;;;;5070370;28;20362;-84
2022/12/13 09:15:10;;;;;;;;;;;-1.10;99.90;;;;;;5071321;28;19916;-84
2022/12/13 09:17:36;;;;;;;;;;;-1.00;99.90;;;;;;5072821;28;19908;-84
2022/12/13 09:20:01;;;;;;;;;;;-0.90;99.90;;;;;;5070845;28;19988;-84
2022/12/13 09:22:27;;;;;;;;;;;-0.90;99.90;;;;;;5070468;28;19908;-84
2022/12/13 09:24:52;;;;;;;;;;;-0.90;99.90;;;;;;5087666;28;20314;-84
2022/12/13 09:27:18;;;;;;;;;;;-0.80;99.90;;;;;;5070523;28;19974;-84
2022/12/13 09:29:45;;;;;;;;;;;-0.70;99.90;;;;;;5071772;28;19916;-84
2022/12/13 09:32:11;;;;;;;;;;;-0.60;99.90;;;;;;5070116;28;19920;-84
2022/12/13 09:34:37;;;;;;;;;;;-0.50;99.90;;;;;;5070587;28;19999;-84
2022/12/13 09:37:02;;;;;;;;;;;-0.40;99.90;;;;;;5071618;28;20058;-84
2022/12/13 09:39:28;;;;;;;;;;;-0.30;99.90;;;;;;5073101;28;19909;-84
2022/12/13 09:41:55;;;;;;;;;;;-0.10;99.90;;;;;;5073726;28;20384;-84
2022/12/13 09:44:29;;;;;;;;;;;-0.10;99.90;;;;;;5075209;28;20324;-84
2022/12/13 09:46:56;;;;;;;;;;;0.00;99.90;;;;;;5074051;28;19989;-84
2022/12/13 09:49:27;;;;;;;;;;;0.00;99.90;;;;;;5073990;28;19908;-84
2022/12/13 09:51:54;;;;;;;;;;;0.10;99.90;;;;;;5073640;28;19908;-84
2022/12/13 09:54:23;;;;;;;;;;;0.00;99.90;;;;;;5073821;28;19989;-84
2022/12/13 09:56:53;;;;;;;;;;;0.00;99.90;;;;;;5075302;28;19909;-85
2022/12/13 09:59:22;;;;;;;;;;;0.10;99.90;;;;;;5073970;28;20011;-84
2022/12/13 10:01:47;;;;;;;;;;;0.20;99.90;;;;;;5074747;28;19985;-84
2022/12/13 10:04:14;;;;;;;;;;;0.30;99.90;;;;;;5074934;28;19909;-84
2022/12/13 10:06:40;;;;;;;;;;;0.40;99.90;;;;;;5073584;28;19915;-84
2022/12/13 10:09:07;;;;;;;;;;;0.50;99.90;;;;;;5074955;28;20468;-84
2022/12/13 10:11:32;;;;;;;;;;;0.60;99.90;;;;;;5074842;28;20399;-84
2022/12/13 10:14:07;;;;;;;;;;;0.60;99.90;;;;;;5073382;28;19927;-83
2022/12/13 10:16:32;;;;;;;;;;;0.50;99.90;;;;;;5090357;28;20353;-84
2022/12/13 10:18:58;;;;;;;;;;;0.60;99.90;;;;;;5090147;28;19908;-84
2022/12/13 10:21:26;;;;;;;;;;;0.60;99.90;;;;;;5072906;28;19912;-84
2022/12/13 10:23:52;;;;;;;;;;;0.70;99.90;;;;;;5074689;28;20388;-84
2022/12/13 10:26:17;;;;;;;;;;;0.70;99.90;;;;;;5073333;28;19909;-84
2022/12/13 10:28:43;;;;;;;;;;;0.80;99.90;;;;;;5073540;28;20323;-84
2022/12/13 10:31:14;;;;;;;;;;;0.90;99.90;;;;;;5073502;28;19916;-84
2022/12/13 10:33:47;;;;;;;;;;;1.00;99.90;;;;;;5073605;28;19916;-84
2022/12/13 10:36:29;;;;;;;;;;;1.00;99.90;;;;;;5074453;28;19909;-84
2022/12/13 10:38:55;;;;;;;;;;;1.00;99.90;;;;;;5073126;28;20051;-83
2022/12/13 10:41:25;;;;;;;;;;;1.00;99.90;;;;;;5072674;28;20446;-85
2022/12/13 10:44:09;;;;;;;;;;;1.00;99.90;;;;;;5074215;28;19916;-84
2022/12/13 10:46:35;;;;;;;;;;;1.00;99.90;;;;;;5072733;28;19908;-84
2022/12/13 10:49:00;;;;;;;;;;;1.10;99.90;;;;;;5074134;28;19908;-85
2022/12/13 10:51:26;;;;;;;;;;;1.30;99.90;;;;;;5072085;28;19909;-85
2022/12/13 10:53:53;;;;;;;;;;;1.40;99.90;;;;;;5072753;28;19915;-84
2022/12/13 10:56:20;;;;;;;;;;;1.50;99.90;;;;;;5073805;28;20439;-84
2022/12/13 10:58:46;;;;;;;;;;;1.70;99.90;;;;;;5072659;28;19948;-84
2022/12/13 11:01:18;;;;;;;;;;;1.90;99.90;;;;;;5072293;28;19909;-84
2022/12/13 11:04:00;;;;;;;;;;;2.00;99.90;;;;;;5089409;28;19915;-84
2022/12/13 11:06:26;;;;;;;;;;;2.10;99.90;;;;;;5072339;28;20005;-84
2022/12/13 11:08:52;;;;;;;;;;;2.70;99.90;;;;;;5072417;28;19915;-84
2022/12/13 11:11:25;;;;;;;;;;;3.10;99.90;;;;;;5073261;28;19947;-84
2022/12/13 11:13:52;;;;;;;;;;;3.50;99.90;;;;;;5072437;28;20320;-84
2022/12/13 11:16:21;;;;;;;;;;;3.90;99.90;;;;;;5072304;28;20394;-84
2022/12/13 11:18:49;;;;;;;;;;;3.90;99.90;;;;;;5089238;28;19954;-84
2022/12/13 11:21:22;;;;;;;;;;;3.70;99.90;;;;;;5072821;28;19944;-84
2022/12/13 11:23:47;;;;;;;;;;;3.60;99.90;;;;;;5072228;28;19960;-85
2022/12/13 11:26:17;;;;;;;;;;;3.90;99.90;;;;;;5072097;28;19951;-84
2022/12/13 11:28:46;;;;;;;;;;;4.80;99.90;;;;;;5071888;28;19920;-85
2022/12/13 11:31:17;;;;;;;;;;;6.10;99.90;;;;;;5084733;22;20417;-82
2022/12/13 11:34:09;;;;;;;;;;;7.00;99.90;;;;;;5035111;28;19913;-83
2022/12/13 11:36:38;;;;;;;;;;;7.30;99.80;;;;;;5034817;28;19913;-81
2022/12/13 11:39:24;;;;;;;;;;;8.20;97.70;;;;;;5050170;28;19909;-82
2022/12/13 11:41:56;;;;;;;;;;;9.00;93.00;;;;;;5050041;28;19916;-82
2022/12/13 11:44:32;;;;;;;;;;;10.10;85.20;;;;;;5033559;28;20301;-83
2022/12/13 11:46:59;;;;;;;;;;;10.80;78.60;;;;;;5033464;28;19913;-83
2022/12/13 11:49:38;;;;;;;;;;;10.70;76.00;;;;;;5033811;28;19913;-83
2022/12/13 11:52:16;;;;;;;;;;;10.70;74.50;;;;;;5033317;28;19916;-82
2022/12/13 11:54:49;;;;;;;;;;;10.80;72.50;;;;;;5033214;28;19913;-82
2022/12/13 11:57:33;;;;;;;;;;;10.90;71.60;;;;;;5032278;28;20020;-83
2022/12/13 12:00:14;;;;;;;;;;;11.30;70.80;;;;;;5031911;28;19909;-83
2022/12/13 12:02:43;;;;;;;;;;;12.40;68.40;;;;;;5031053;28;20306;-83
2022/12/13 12:05:24;;;;;;;;;;;13.20;64.10;;;;;;5032540;28;19932;-82
2022/12/13 12:07:53;;;;;;;;;;;13.80;60.50;;;;;;5031898;28;19913;-83
2022/12/13 12:10:25;;;;;;;;;;;13.40;58.30;;;;;;5031868;28;19909;-84
2022/12/13 12:12:56;;;;;;;;;;;13.60;56.90;;;;;;5033911;28;20429;-83
2022/12/13 12:15:27;;;;;;;;;;;14.10;56.10;;;;;;5034592;28;19909;-83
2022/12/13 12:17:56;;;;;;;;;;;15.10;54.00;;;;;;5032114;28;19918;-84
2022/12/13 12:20:40;;;;;;;;;;;14.70;51.60;;;;;;5031364;28;19909;-82
2022/12/13 12:23:13;;;;;;;;;;;14.60;52.00;;;;;;5032376;28;19913;-84
2022/12/13 12:25:56;;;;;;;;;;;15.00;52.00;;;;;;5031623;28;20003;-83
2022/12/13 12:28:40;;;;;;;;;;;14.50;50.40;;;;;;5037526;28;20379;-84
2022/12/13 12:31:12;;;;;;;;;;;14.10;50.40;;;;;;5034046;28;19917;-82
2022/12/13 12:33:45;;;;;;;;;;;13.60;50.90;;;;;;5031591;28;19967;-84
2022/12/13 12:36:34;;;;;;;;;;;13.50;50.20;;;;;;5031702;28;19963;-83
2022/12/13 12:39:16;;;;;;;;;;;12.40;51.40;;;;;;5032383;28;19913;-86
2022/12/13 12:41:41;;;;;;;;;;;11.00;52.80;;;;;;5033369;28;19913;-85
2022/12/13 12:44:06;;;;;;;;;;;10.00;53.50;;;;;;5032610;28;20019;-83
2022/12/13 12:46:51;;;;;;;;;;;9.10;55.90;;;;;;5032139;28;19913;-84
2022/12/13 12:49:16;;;;;;;;;;;8.80;57.80;;;;;;5032022;28;19955;-85
2022/12/13 12:51:46;;;;;;;;;;;9.40;59.70;;;;;;5023024;28;19917;-86
2022/12/13 12:54:21;;;;;;;;;;;10.40;58.10;;;;;;5030906;28;19963;-86
2022/12/13 12:56:59;;;;;;;;;;;11.40;57.90;;;;;;5031415;28;19917;-85
2022/12/13 12:59:38;;;;;;;;;;;11.90;55.10;;;;;;5032524;28;20292;-85
2022/12/13 13:02:12;;;;;;;;;;;12.00;54.70;;;;;;5032078;28;19910;-85
2022/12/13 13:04:42;;;;;;;;;;;12.00;53.70;;;;;;5029929;28;20439;-87
2022/12/13 13:07:14;;;;;;;;;;;11.60;53.40;;;;;;5022823;28;19909;-87
2022/12/13 13:09:40;;;;;;;;;;;11.30;53.50;;;;;;5016620;28;19914;-87
2022/12/13 13:12:08;;;;;;;;;;;10.70;53.30;;;;;;5011055;28;20264;-87
2022/12/13 13:14:35;;;;;;;;;;;10.00;53.90;;;;;;5015579;28;19909;-85
2022/12/13 13:17:16;;;;;;;;;;;9.50;56.00;;;;;;5016775;28;19936;-86
2022/12/13 13:19:41;;;;;;;;;;;9.00;56.40;;;;;;5015711;28;19918;-84
2022/12/13 13:22:25;;;;;;;;;;;8.50;57.50;;;;;;5014862;28;19915;-85
2022/12/13 13:24:58;;;;;;;;;;;8.00;58.80;;;;;;5016747;28;19960;-84
2022/12/13 13:27:28;;;;;;;;;;;7.30;60.90;;;;;;5016266;28;19963;-83
2022/12/13 13:30:03;;;;;;;;;;;6.70;63.40;;;;;;5016117;28;19955;-82
2022/12/13 13:32:29;;;;;;;;;;;6.20;67.30;;;;;;5014499;28;19918;-83
2022/12/13 13:35:15;;;;;;;;;;;5.60;73.60;;;;;;5015962;28;19944;-83
2022/12/13 13:37:47;;;;;;;;;;;5.30;78.30;;;;;;5014467;28;19917;-83
2022/12/13 13:40:13;;;;;;;;;;;5.00;86.00;;;;;;5014310;28;19917;-82
2022/12/13 13:42:57;;;;;;;;;;;4.80;90.20;;;;;;5014130;28;19909;-85
2022/12/13 13:45:23;;;;;;;;;;;4.70;93.60;;;;;;5014698;28;19920;-85
2022/12/13 13:48:13;;;;;;;;;;;4.50;94.40;;;;;;5016311;28;19909;-84
2022/12/13 13:50:58;;;;;;;;;;;4.40;98.10;;;;;;5023804;28;19920;-84
2022/12/13 13:53:24;;;;;;;;;;;4.30;99.90;;;;;;5036886;28;19909;-85
2022/12/13 13:55:58;;;;;;;;;;;4.20;99.90;;;;;;5034562;28;20004;-84
2022/12/13 13:58:42;;;;;;;;;;;4.10;99.90;;;;;;5034301;28;19944;-84
2022/12/13 14:01:07;;;;;;;;;;;4.00;99.90;;;;;;5037065;28;19915;-84
2022/12/13 14:03:48;;;;;;;;;;;3.90;99.90;;;;;;5035837;28;19992;-84
2022/12/13 14:06:26;;;;;;;;;;;3.70;99.90;;;;;;5033859;28;19941;-83
2022/12/13 14:09:10;;;;;;;;;;;3.70;99.90;;;;;;5033654;28;19909;-85
2022/12/13 14:11:41;;;;;;;;;;;3.50;99.90;;;;;;5034311;28;19909;-85
2022/12/13 14:14:25;;;;;;;;;;;3.50;99.90;;;;;;5034309;28;19909;-84
2022/12/13 14:17:09;;;;;;;;;;;3.50;99.90;;;;;;5034031;28;20054;-83
2022/12/13 14:20:02;;;;;;;;;;;3.50;99.90;;;;;;5033952;28;19909;-82
2022/12/13 14:22:33;;;;;;;;;;;3.50;99.90;;;;;;5034904;28;20322;-84
2022/12/13 14:25:14;;;;;;;;;;;3.40;99.90;;;;;;5033595;28;19909;-83
2022/12/13 14:27:43;;;;;;;;;;;3.40;99.90;;;;;;5033942;28;20046;-84
2022/12/13 14:30:17;;;;;;;;;;;3.30;99.90;;;;;;5033528;28;19913;-85
2022/12/13 14:32:45;;;;;;;;;;;3.20;99.90;;;;;;5027634;28;19925;-86
2022/12/13 14:35:23;;;;;;;;;;;3.10;99.90;;;;;;5025802;28;19999;-84
2022/12/13 14:37:59;;;;;;;;;;;3.10;99.90;;;;;;5027962;28;19921;-85